Armony — 5IM517 — position and weather

sailwx.info

Track history (hours):
 
Tides and Currents Weather Stations Pressure Air Temp Water Temp Dewpoint Dewpoint Depression Visibility Wind Speed Wind Dir Waves Ship Positions

Armony

Last reported at 2016-Dec-25 19:08 UTC. Time now 2017-Jan-17 11:02 UTC.
Position N 40°59' E 028°60'.
Warning: this ship's position is 22 days out of date.

Length 70 m; draft 3 m.

Type: Ship. MMSI: 677041700.

Date/timePositionNaut miles runAvg speedWind from/ knotsBaromVisibWave heightAir tempDewpointWater temp
2016-Dec-25 19:08N 40°59' E 028°60'6 3.5
2016-Dec-25 17:31N 40°54' E 028°57'12 0.3
2016-Dec-24 00:27N 40°42' E 028°52'2 1.4
2016-Dec-23 23:17N 40°42' E 028°54'1 1.2
2016-Dec-23 22:24N 40°43' E 028°55'1 1.2
2016-Dec-23 21:28N 40°43' E 028°57'3 1.1
2016-Dec-23 18:31N 40°45' E 028°60'7 6.9
2016-Dec-23 17:32N 40°48' E 029°08'2 2.6
2016-Dec-23 16:33N 40°49' E 029°11'3 3.1
2016-Dec-23 15:34N 40°47' E 029°14'8 7.5
2016-Dec-23 14:32N 40°45' E 029°23'8 0.2
2016-Dec-21 23:19N 40°46' E 029°33'4 5.5
2016-Dec-21 22:31N 40°45' E 029°27'1 0.1
2016-Dec-21 07:28N 40°44' E 029°26'6 6.9
2016-Dec-21 06:33N 40°44' E 029°18'7 7.0
2016-Dec-21 05:32N 40°44' E 029°08'6 6.4
2016-Dec-21 04:33N 40°47' E 029°01'10 7.6
2016-Dec-21 03:12N 40°57' E 028°57'  
Track history (hours):
 
Tides and Currents Weather Stations Pressure Air Temp Water Temp Dewpoint Dewpoint Depression Visibility Wind Speed Wind Dir Waves Ship Positions

Armony

Last reported at 2016-Dec-25 19:08 UTC. Time now 2017-Jan-17 11:02 UTC.
Position N 40°59' E 028°60'.
Warning: this ship's position is 22 days out of date.

Length 70 m; draft 3 m.

Type: Ship. MMSI: 677041700.

Date/timePositionNaut miles runAvg speedWind from/ knotsBaromVisibWave heightAir tempDewpointWater temp
2016-Dec-25 19:08N 40°59' E 028°60'6 3.5
2016-Dec-25 17:31N 40°54' E 028°57'12 0.3
2016-Dec-24 00:27N 40°42' E 028°52'2 1.4
2016-Dec-23 23:17N 40°42' E 028°54'1 1.2
2016-Dec-23 22:24N 40°43' E 028°55'1 1.2
2016-Dec-23 21:28N 40°43' E 028°57'3 1.1
2016-Dec-23 18:31N 40°45' E 028°60'7 6.9
2016-Dec-23 17:32N 40°48' E 029°08'2 2.6
2016-Dec-23 16:33N 40°49' E 029°11'3 3.1
2016-Dec-23 15:34N 40°47' E 029°14'8 7.5
2016-Dec-23 14:32N 40°45' E 029°23'8 0.2
2016-Dec-21 23:19N 40°46' E 029°33'4 5.5
2016-Dec-21 22:31N 40°45' E 029°27'1 0.1
2016-Dec-21 07:28N 40°44' E 029°26'6 6.9
2016-Dec-21 06:33N 40°44' E 029°18'7 7.0
2016-Dec-21 05:32N 40°44' E 029°08'6 6.4
2016-Dec-21 04:33N 40°47' E 029°01'10 7.6
2016-Dec-21 03:12N 40°57' E 028°57'  

Dump ship's entire track history